テルアビブ / ベン・グリオン の空港の天気 - METARとTAF

ベン・グリオン国際空港(テルアビブ) ( LLBG / TLV ) - イスラエル ロード / テルアビブ
飛行場実況気象(Metar)
観測時間04/19 14:50 IDT (04/19 11:50 UTC)
風向・風速西北西 4m/s
視程10km以上
天気現象
なし
気温26℃
湿度45%
気圧1015hPa
METARLLBG 191150Z 29008KT CAVOK 26/13 Q1015 NOSIG
過去の天気等 Google飛行場航空写真 Wunderground天気予報

過去48時間のMETAR

飛行場予報(TAF)
発表時間: 4/19 14:05 IDT (4/19 11:05 UTC)
予報対象時間: 19日15時 IDT ~ 20日15時 IDT
風向・風速西北西 6m/s
視程10km以上
なし
19日18時 IDT ~ 19日21時 IDT に徐々に
風向・風速不定 2m/s
視程8,000m
全天の4割程度の雲 雲底高度 400m
19日23時 IDT ~ 20日1時 IDT に徐々に
風向・風速西 5m/s
視程10km以上
全天の8割程度の雲 雲底高度 550m
20日9時 IDT ~ 20日12時 IDT に徐々に
風向・風速西南西 7m/s
少しの雲 雲底高度 610m
TAF LLBG 191105Z 1912/2012 30012KT CAVOK
BECMG 1915/1918 VRB03KT 8000 SCT013
BECMG 1920/1922 28010KT 9999 BKN018
BECMG 2006/2009 25013KT FEW020 TX26/1912Z TN17/2004Z